Time;durP1;ratioP1;P1;durP2;ratioP2;P2;SDS_P1;SDS_P2;PMS_P1;PMS_P2;Temp;Humidity;BMP_temperature;BMP_pressure;BME280_temperature;BME280_humidity;BME280_pressure;Samples;Min_cycle;Max_cycle;Signal;HPM_P1;HPM_P2
2021/07/31 00:01:08;;;;;;;19.25;10.95;;;;;;;17.49;94.17;98883.84;1725813;82;20990;-70
2021/07/31 00:03:36;;;;;;;18.80;11.03;;;;;;;17.47;94.19;98886.20;1725882;83;20989;-70
2021/07/31 00:06:05;;;;;;;17.42;10.50;;;;;;;17.44;94.25;98878.63;1725911;83;21088;-70
2021/07/31 00:08:32;;;;;;;19.98;10.72;;;;;;;17.42;94.39;98875.43;1688346;85;20990;-70
2021/07/31 00:11:00;;;;;;;16.77;10.78;;;;;;;17.40;94.44;98881.14;1695319;83;21026;-69
2021/07/31 00:13:28;;;;;;;14.50;10.40;;;;;;;17.40;94.40;98886.69;1726719;82;21015;-70
2021/07/31 00:15:55;;;;;;;16.50;10.38;;;;;;;17.37;94.36;98891.02;1727855;83;20980;-69
2021/07/31 00:18:22;;;;;;;19.57;10.65;;;;;;;17.35;94.44;98889.80;1727960;82;20949;-70
2021/07/31 00:20:49;;;;;;;16.48;10.28;;;;;;;17.32;94.42;98882.26;1727830;83;21476;-70
2021/07/31 00:23:16;;;;;;;14.70;10.15;;;;;;;17.29;94.45;98881.03;1739272;82;21135;-69
2021/07/31 00:25:42;;;;;;;18.10;10.28;;;;;;;17.27;94.59;98886.16;1739824;82;20994;-70
2021/07/31 00:28:09;;;;;;;18.95;10.28;;;;;;;17.24;94.59;98888.89;1739841;82;21022;-70
2021/07/31 00:30:36;;;;;;;15.00;10.13;;;;;;;17.20;94.61;98885.27;1739821;82;20947;-70
2021/07/31 00:33:05;;;;;;;15.43;9.68;;;;;;;17.18;94.71;98889.80;1739867;81;20927;-70
2021/07/31 00:35:32;;;;;;;18.82;10.35;;;;;;;17.17;95.03;98886.81;1739760;82;21033;-70
2021/07/31 00:37:58;;;;;;;14.83;9.88;;;;;;;17.15;95.03;98889.16;1739755;82;20998;-70
2021/07/31 00:40:25;;;;;;;14.43;10.38;;;;;;;17.12;94.99;98878.23;1745861;82;20975;-69
2021/07/31 00:42:52;;;;;;;20.32;10.55;;;;;;;17.09;95.05;98880.37;1773121;80;21032;-70
2021/07/31 00:45:19;;;;;;;18.70;10.48;;;;;;;17.08;95.02;98875.20;1773457;81;20987;-70
2021/07/31 00:47:45;;;;;;;17.50;10.35;;;;;;;17.05;94.91;98873.97;1773026;81;21054;-70
2021/07/31 00:50:12;;;;;;;17.12;9.68;;;;;;;17.04;94.93;98877.92;1772945;81;21039;-70
2021/07/31 00:52:40;;;;;;;18.48;9.45;;;;;;;17.01;94.97;98877.28;1773206;81;21021;-71
2021/07/31 00:55:10;;;;;;;17.00;9.55;;;;;;;16.98;94.99;98875.25;1751174;81;20948;-70
2021/07/31 00:57:38;;;;;;;22.30;10.80;;;;;;;16.98;95.11;98875.84;1725557;81;21023;-70
2021/07/31 01:00:13;;;;;;;15.10;9.13;;;;;;;16.96;95.08;98877.60;1772280;80;21138;-70
2021/07/31 01:02:40;;;;;;;17.10;9.93;;;;;;;16.94;95.27;98878.56;1773035;81;21415;-70
2021/07/31 01:05:08;;;;;;;22.55;9.93;;;;;;;16.91;95.20;98873.77;1773029;81;21735;-71
2021/07/31 01:07:35;;;;;;;14.65;9.68;;;;;;;16.88;95.25;98875.09;1773130;81;20927;-70
2021/07/31 01:10:04;;;;;;;16.65;9.85;;;;;;;16.84;95.13;98875.05;1773010;81;20912;-70
2021/07/31 01:12:34;;;;;;;16.50;9.63;;;;;;;16.77;95.26;98873.55;1773011;81;20999;-70
2021/07/31 01:15:04;;;;;;;20.50;9.80;;;;;;;16.72;95.66;98867.77;1774804;80;21369;-70
2021/07/31 01:17:33;;;;;;;17.73;9.75;;;;;;;16.70;95.93;98872.09;1774602;80;21582;-70
2021/07/31 01:19:59;;;;;;;21.95;10.25;;;;;;;16.67;96.15;98875.02;1774548;80;20993;-70
2021/07/31 01:22:27;;;;;;;17.62;9.48;;;;;;;16.65;96.21;98870.44;1724958;82;20978;-70
2021/07/31 01:24:56;;;;;;;18.55;9.35;;;;;;;16.64;96.13;98868.83;1771874;80;21175;-70
2021/07/31 01:27:23;;;;;;;12.47;8.13;;;;;;;16.62;95.91;98875.30;1774645;80;20971;-69
2021/07/31 01:29:49;;;;;;;19.75;8.58;;;;;;;16.58;96.14;98873.65;1774532;80;21000;-69
2021/07/31 01:32:16;;;;;;;16.75;9.10;;;;;;;16.56;96.41;98873.22;1774459;80;20999;-69
2021/07/31 01:34:43;;;;;;;16.15;9.25;;;;;;;16.55;96.65;98869.65;1774880;80;20995;-70
2021/07/31 01:37:10;;;;;;;18.52;9.50;;;;;;;16.53;96.65;98871.19;1774701;80;21097;-69
2021/07/31 01:39:37;;;;;;;20.55;9.45;;;;;;;16.48;96.64;98872.30;1766096;80;21004;-70
2021/07/31 01:42:06;;;;;;;17.45;9.08;;;;;;;16.47;96.72;98877.62;1754514;81;21031;-69
2021/07/31 01:44:36;;;;;;;13.37;9.00;;;;;;;16.43;96.64;98878.95;1755174;81;21561;-70
2021/07/31 01:47:03;;;;;;;16.27;8.55;;;;;;;16.39;96.63;98868.98;1754670;81;20956;-70
2021/07/31 01:49:31;;;;;;;13.30;8.40;;;;;;;16.36;96.83;98871.91;1754660;81;23313;-71
2021/07/31 01:51:59;;;;;;;15.28;9.08;;;;;;;16.35;96.89;98877.23;1754324;81;20916;-71
2021/07/31 01:54:26;;;;;;;15.43;9.55;;;;;;;16.34;97.05;98872.86;1754609;81;22093;-71
2021/07/31 01:56:52;;;;;;;18.60;9.28;;;;;;;16.34;96.96;98872.06;1754456;81;21515;-70
2021/07/31 01:59:21;;;;;;;15.30;8.88;;;;;;;16.32;96.94;98875.20;1754698;81;20987;-70
2021/07/31 02:01:48;;;;;;;19.75;9.33;;;;;;;16.28;96.54;98874.34;1754619;81;21181;-71
2021/07/31 02:04:16;;;;;;;12.55;8.05;;;;;;;16.23;96.71;98878.80;1754356;81;20972;-71
2021/07/31 02:06:46;;;;;;;13.85;9.15;;;;;;;16.21;96.86;98876.98;1754737;81;20928;-71
2021/07/31 02:09:14;;;;;;;21.95;8.95;;;;;;;16.18;96.87;98887.42;1754552;81;20944;-71
2021/07/31 02:11:43;;;;;;;12.18;8.58;;;;;;;16.14;97.09;98883.23;1754683;81;20944;-71
2021/07/31 02:14:09;;;;;;;18.85;9.10;;;;;;;16.12;97.30;98892.49;1745439;80;21120;-70
2021/07/31 02:16:38;;;;;;;17.00;8.48;;;;;;;16.12;97.58;98888.92;1740281;82;21404;-71
2021/07/31 02:19:07;;;;;;;14.20;8.63;;;;;;;16.09;97.33;98895.20;1712018;82;21467;-71
2021/07/31 02:21:36;;;;;;;15.13;8.48;;;;;;;16.06;97.50;98895.34;1745168;81;21023;-71
2021/07/31 02:24:21;;;;;;;19.48;8.68;;;;;;;16.05;97.55;98890.98;1739164;82;20933;-70
2021/07/31 02:27:05;;;;;;;15.08;7.90;;;;;;;16.03;97.55;98898.05;1651503;86;20990;-71
2021/07/31 02:29:33;;;;;;;14.65;9.00;;;;;;;16.00;97.43;98896.81;1743206;79;20935;-72
2021/07/31 02:32:00;;;;;;;15.43;9.78;;;;;;;15.98;97.69;98899.15;1787013;80;20952;-72
2021/07/31 02:34:28;;;;;;;17.90;10.03;;;;;;;15.99;97.79;98897.18;1786884;80;21477;-72
2021/07/31 02:36:54;;;;;;;19.02;10.43;;;;;;;15.98;97.89;98893.61;1739452;82;20929;-70
2021/07/31 02:39:25;;;;;;;16.50;8.43;;;;;;;15.99;97.85;98894.41;1785944;80;21161;-71
2021/07/31 02:41:52;;;;;;;17.35;9.58;;;;;;;15.99;97.89;98901.33;1783045;80;20883;-71
2021/07/31 02:44:19;;;;;;;15.90;8.38;;;;;;;15.99;98.08;98894.41;1782862;79;20963;-71
2021/07/31 02:46:47;;;;;;;15.58;8.88;;;;;;;15.98;98.01;98893.61;1748364;82;20992;-71
2021/07/31 02:49:14;;;;;;;17.07;8.13;;;;;;;15.98;97.94;98896.37;1774595;80;21050;-71
2021/07/31 02:51:41;;;;;;;10.78;8.23;;;;;;;15.96;98.02;98893.77;1748320;82;21141;-70
2021/07/31 02:54:19;;;;;;;18.27;8.95;;;;;;;15.96;98.25;98900.09;1763878;80;20899;-70
2021/07/31 02:56:46;;;;;;;14.83;8.30;;;;;;;15.96;98.51;98900.69;1748460;82;20919;-71
2021/07/31 02:59:15;;;;;;;16.37;8.68;;;;;;;15.96;98.71;98897.91;1774547;80;20975;-71
2021/07/31 03:01:41;;;;;;;14.53;8.23;;;;;;;15.97;98.96;98900.90;1748261;82;21018;-71
2021/07/31 03:04:08;;;;;;;17.67;8.53;;;;;;;15.99;99.08;98908.25;1774823;80;21064;-70
2021/07/31 03:06:36;;;;;;;18.85;8.78;;;;;;;16.00;99.15;98909.86;1748346;82;20927;-71
2021/07/31 03:09:04;;;;;;;14.13;8.18;;;;;;;16.03;99.30;98907.73;1774681;80;20994;-71
2021/07/31 03:11:31;;;;;;;13.35;8.60;;;;;;;16.07;99.49;98912.17;1748303;82;21922;-71
2021/07/31 03:13:58;;;;;;;13.28;8.05;;;;;;;16.11;99.60;98909.47;1767953;80;20997;-71
2021/07/31 03:16:27;;;;;;;13.55;8.85;;;;;;;16.15;99.70;98907.57;1763149;81;21151;-71
2021/07/31 03:18:55;;;;;;;13.95;8.63;;;;;;;16.21;99.96;98918.53;1768053;80;20992;-71
2021/07/31 03:21:23;;;;;;;14.58;8.18;;;;;;;16.27;100.00;98913.48;1748415;82;20903;-71
2021/07/31 03:23:51;;;;;;;15.10;8.83;;;;;;;16.32;100.00;98907.05;1774354;80;21418;-71
2021/07/31 03:26:18;;;;;;;16.52;9.50;;;;;;;16.38;100.00;98909.73;1748400;82;21031;-71
2021/07/31 03:28:46;;;;;;;17.30;8.73;;;;;;;16.45;100.00;98909.05;1774845;79;21103;-71
2021/07/31 03:31:21;;;;;;;14.03;9.18;;;;;;;16.51;100.00;98908.97;1748541;82;21004;-71
2021/07/31 03:33:49;;;;;;;19.92;9.00;;;;;;;16.57;100.00;98908.87;1774201;80;20912;-71
2021/07/31 03:36:17;;;;;;;15.78;8.73;;;;;;;16.66;100.00;98914.98;1747029;82;20940;-71
2021/07/31 03:39:04;;;;;;;14.15;9.15;;;;;;;16.75;100.00;98910.57;1772791;80;21054;-71
2021/07/31 03:41:33;;;;;;;13.00;9.18;;;;;;;16.86;100.00;98912.09;1765806;80;21198;-71
2021/07/31 03:44:01;;;;;;;14.98;9.00;;;;;;;16.93;100.00;98909.44;1765757;80;20971;-71
2021/07/31 03:46:29;;;;;;;12.85;8.85;;;;;;;17.03;100.00;98922.07;1774279;80;20971;-71
2021/07/31 03:48:56;;;;;;;12.75;9.30;;;;;;;17.13;100.00;98916.47;1737413;81;21047;-71
2021/07/31 03:51:23;;;;;;;11.83;8.93;;;;;;;17.23;100.00;98919.98;1734121;82;20986;-71
2021/07/31 03:53:51;;;;;;;15.28;9.65;;;;;;;17.34;100.00;98917.33;1730584;82;21951;-71
2021/07/31 03:56:17;;;;;;;15.68;8.70;;;;;;;17.45;100.00;98928.78;1739324;81;21469;-70
2021/07/31 03:58:47;;;;;;;17.50;8.93;;;;;;;17.60;100.00;98929.77;1728095;81;20956;-71
2021/07/31 04:01:23;;;;;;;16.73;8.60;;;;;;;17.76;100.00;98924.84;1740000;81;21035;-71
2021/07/31 04:03:52;;;;;;;13.10;7.47;;;;;;;17.92;100.00;98931.55;1737241;82;21064;-70
2021/07/31 04:06:19;;;;;;;10.75;7.20;;;;;;;18.10;100.00;98930.36;1745500;81;21110;-70
2021/07/31 04:08:49;;;;;;;12.28;7.40;;;;;;;18.26;99.73;98929.53;1768064;80;20891;-70
2021/07/31 04:11:16;;;;;;;11.00;7.12;;;;;;;18.44;98.25;98931.90;1770047;80;20983;-71
2021/07/31 04:14:01;;;;;;;15.15;7.47;;;;;;;18.61;96.83;98925.49;1770310;80;20971;-71
2021/07/31 04:16:34;;;;;;;14.80;7.08;;;;;;;18.75;95.05;98931.17;1749311;81;21420;-71
2021/07/31 04:19:01;;;;;;;15.43;6.72;;;;;;;18.89;93.75;98933.27;1770241;81;22295;-71
2021/07/31 04:21:27;;;;;;;10.53;6.83;;;;;;;19.02;91.55;98932.58;1770447;81;21507;-71
2021/07/31 04:23:56;;;;;;;13.00;6.62;;;;;;;19.17;90.01;98943.77;1770396;81;20980;-71
2021/07/31 04:26:23;;;;;;;13.32;6.10;;;;;;;19.31;88.51;98936.91;1770328;81;20874;-71
2021/07/31 04:28:50;;;;;;;18.15;7.12;;;;;;;19.44;86.80;98936.78;1769791;81;21399;-72
2021/07/31 04:31:17;;;;;;;9.13;5.42;;;;;;;19.57;85.91;98935.89;1767299;81;21135;-72
2021/07/31 04:33:44;;;;;;;11.20;6.12;;;;;;;19.69;83.87;98932.14;1767479;81;20920;-71
2021/07/31 04:36:11;;;;;;;7.37;6.15;;;;;;;19.81;82.82;98931.59;1769416;80;20878;-72
2021/07/31 04:38:38;;;;;;;10.23;5.97;;;;;;;19.91;81.80;98936.41;1765933;81;20885;-71
2021/07/31 04:41:06;;;;;;;11.28;6.40;;;;;;;20.03;81.39;98926.30;1757437;81;21027;-70
2021/07/31 04:43:33;;;;;;;16.42;6.72;;;;;;;20.13;80.53;98923.34;1773037;79;21130;-72
2021/07/31 04:46:00;;;;;;;11.55;5.90;;;;;;;20.23;80.33;98927.52;1762534;79;21031;-72
2021/07/31 04:48:27;;;;;;;16.30;6.92;;;;;;;20.36;78.97;98933.52;1803756;78;21552;-72
2021/07/31 04:51:01;;;;;;;12.10;6.35;;;;;;;20.45;78.30;98928.38;1785689;80;20972;-72
2021/07/31 04:53:30;;;;;;;17.12;6.40;;;;;;;20.55;77.95;98928.98;1794765;78;20876;-73
2021/07/31 04:55:56;;;;;;;12.53;6.72;;;;;;;20.67;76.52;98934.77;1807160;78;21115;-72
2021/07/31 04:58:24;;;;;;;15.35;6.50;;;;;;;20.75;75.68;98926.01;1811191;78;21584;-72
2021/07/31 05:00:51;;;;;;;15.72;6.78;;;;;;;20.83;75.67;98925.38;1806238;78;20888;-73
2021/07/31 05:03:18;;;;;;;9.20;6.37;;;;;;;20.92;75.81;98929.96;1808896;78;21014;-73
2021/07/31 05:05:45;;;;;;;18.02;7.33;;;;;;;21.02;76.52;98921.38;1809725;78;20958;-72
2021/07/31 05:08:13;;;;;;;21.37;7.03;;;;;;;21.13;76.01;98931.94;1807823;78;21137;-72
2021/07/31 05:10:45;;;;;;;10.40;6.08;;;;;;;21.23;75.70;98928.96;1805669;78;20966;-72
2021/07/31 05:13:12;;;;;;;12.33;6.80;;;;;;;21.33;76.05;98932.33;1798872;78;20931;-75
2021/07/31 05:15:40;;;;;;;12.43;6.80;;;;;;;21.43;75.83;98935.06;1823023;78;21037;-70
2021/07/31 05:18:08;;;;;;;11.63;6.47;;;;;;;21.53;76.30;98936.23;1746240;82;20938;-70
2021/07/31 05:20:43;;;;;;;10.28;6.28;;;;;;;21.62;77.22;98940.00;1791454;80;21940;-71
2021/07/31 05:23:12;;;;;;;10.20;6.28;;;;;;;21.73;76.61;98934.57;1769721;81;20880;-70
2021/07/31 05:25:43;;;;;;;12.88;6.17;;;;;;;21.86;76.72;98943.91;1769319;81;21423;-70
2021/07/31 05:28:13;;;;;;;13.05;6.00;;;;;;;21.99;76.67;98945.02;1769075;79;20884;-69
2021/07/31 05:30:42;;;;;;;10.13;5.72;;;;;;;22.11;73.34;98946.58;1746276;82;21029;-70
2021/07/31 05:33:09;;;;;;;14.73;5.67;;;;;;;22.21;72.02;98947.92;1804322;78;21089;-72
2021/07/31 05:35:35;;;;;;;12.13;5.67;;;;;;;22.34;70.85;98956.03;1801638;78;21020;-71
2021/07/31 05:38:03;;;;;;;8.08;4.95;;;;;;;22.46;69.95;98956.77;1809191;78;21088;-73
2021/07/31 05:40:29;;;;;;;10.60;5.28;;;;;;;22.58;69.59;98964.64;1803222;78;21025;-74
2021/07/31 05:42:57;;;;;;;9.00;4.55;;;;;;;22.70;68.94;98959.36;1800191;78;20930;-76
2021/07/31 05:45:26;;;;;;;7.03;4.78;;;;;;;22.83;68.44;98958.30;1770955;80;20987;-72
2021/07/31 05:47:56;;;;;;;12.13;4.83;;;;;;;22.96;67.52;98958.59;1794047;78;20975;-72
2021/07/31 05:50:23;;;;;;;9.03;5.12;;;;;;;23.08;67.48;98963.69;1798443;78;21469;-72
2021/07/31 05:52:51;;;;;;;7.67;4.80;;;;;;;23.19;67.31;98953.16;1796722;78;21514;-72
2021/07/31 05:55:17;;;;;;;8.20;4.80;;;;;;;23.32;66.25;98959.03;1794814;78;21467;-71
2021/07/31 05:57:43;;;;;;;14.50;5.05;;;;;;;23.43;64.83;98958.31;1796783;78;21020;-72
2021/07/31 06:00:12;;;;;;;11.40;4.80;;;;;;;23.53;64.17;98964.45;1800533;78;21497;-71
2021/07/31 06:02:39;;;;;;;10.23;4.92;;;;;;;23.62;64.10;98959.14;1789559;78;20958;-71
2021/07/31 06:05:08;;;;;;;8.00;5.40;;;;;;;23.73;63.29;98961.80;1800155;78;21505;-70
2021/07/31 06:07:36;;;;;;;17.60;5.80;;;;;;;23.84;62.89;98967.27;1781474;80;20924;-70
2021/07/31 06:10:05;;;;;;;6.60;4.20;;;;;;;23.93;62.79;98968.97;1781764;78;22304;-70
2021/07/31 06:12:32;;;;;;;6.12;4.10;;;;;;;24.02;62.50;98969.25;1746633;82;20982;-69
2021/07/31 06:14:59;;;;;;;8.30;4.90;;;;;;;24.09;62.35;98959.35;1776862;79;21446;-70
2021/07/31 06:17:27;;;;;;;9.80;5.58;;;;;;;24.13;60.67;98964.30;1804651;79;21494;-70
2021/07/31 06:19:54;;;;;;;8.78;5.10;;;;;;;24.20;61.18;98955.00;1804141;77;20996;-69
2021/07/31 06:22:21;;;;;;;12.33;5.33;;;;;;;24.31;61.26;98957.05;1796293;79;21110;-68
2021/07/31 06:24:48;;;;;;;9.90;4.83;;;;;;;24.41;60.28;98962.33;1773537;80;21553;-70
2021/07/31 06:27:15;;;;;;;10.75;4.80;;;;;;;24.50;59.75;98956.98;1748410;82;21505;-69
2021/07/31 06:29:42;;;;;;;9.48;4.90;;;;;;;24.58;59.09;98955.66;1774113;79;20936;-69
2021/07/31 06:32:11;;;;;;;5.92;4.78;;;;;;;24.66;59.72;98952.94;1748768;82;20950;-69
2021/07/31 06:34:37;;;;;;;7.00;4.78;;;;;;;24.77;58.21;98946.55;1773786;79;21185;-70
2021/07/31 06:37:04;;;;;;;7.95;4.58;;;;;;;24.87;57.94;98940.54;1773709;80;21541;-70
2021/07/31 06:39:31;;;;;;;12.28;4.85;;;;;;;24.98;59.37;98942.59;1773265;80;21061;-69
2021/07/31 06:41:57;;;;;;;9.48;4.50;;;;;;;25.11;58.43;98940.76;1769611;80;20888;-70
2021/07/31 06:44:24;;;;;;;7.62;4.15;;;;;;;25.25;58.32;98945.33;1766796;81;21014;-70
2021/07/31 06:46:51;;;;;;;7.72;4.60;;;;;;;25.35;57.41;98940.13;1759978;81;21128;-70
2021/07/31 06:49:18;;;;;;;8.65;5.08;;;;;;;25.49;57.58;98941.23;1767401;81;20970;-70
2021/07/31 06:51:45;;;;;;;9.10;4.10;;;;;;;25.64;56.96;98939.77;1767294;81;21030;-69
2021/07/31 06:54:11;;;;;;;8.70;4.90;;;;;;;25.75;55.28;98934.55;1767304;81;20964;-70
2021/07/31 06:56:38;;;;;;;6.10;4.50;;;;;;;25.85;55.02;98939.16;1767513;80;20927;-70
2021/07/31 06:59:06;;;;;;;7.80;4.40;;;;;;;25.96;54.41;98945.35;1767310;81;22336;-70
2021/07/31 07:01:33;;;;;;;10.58;4.37;;;;;;;26.07;53.49;98942.28;1767430;81;20868;-70
2021/07/31 07:04:00;;;;;;;6.83;4.08;;;;;;;26.14;53.64;98937.91;1765272;80;21047;-69
2021/07/31 07:06:26;;;;;;;12.95;4.58;;;;;;;26.21;52.85;98937.76;1765806;81;21928;-69
2021/07/31 07:08:54;;;;;;;8.58;4.50;;;;;;;26.26;52.86;98932.41;1765246;81;21059;-68
2021/07/31 07:11:20;;;;;;;7.15;4.47;;;;;;;26.36;53.09;98934.04;1765155;81;21439;-68
2021/07/31 07:13:47;;;;;;;6.95;4.45;;;;;;;26.44;52.33;98941.09;1765861;81;21039;-69
2021/07/31 07:16:15;;;;;;;9.68;4.50;;;;;;;26.52;52.20;98934.86;1766745;80;21022;-69
2021/07/31 07:18:42;;;;;;;12.45;4.75;;;;;;;26.64;52.49;98934.75;1766890;80;21031;-69
2021/07/31 07:21:10;;;;;;;9.85;4.87;;;;;;;26.77;52.10;98933.44;1766814;81;21031;-69
2021/07/31 07:23:38;;;;;;;5.92;4.60;;;;;;;26.90;51.98;98932.91;1763141;80;21197;-71
2021/07/31 07:26:11;;;;;;;7.33;5.20;;;;;;;27.04;51.56;98938.84;1766266;80;20947;-69
2021/07/31 07:28:38;;;;;;;7.10;4.85;;;;;;;27.13;50.02;98936.19;1766934;79;20940;-69
2021/07/31 07:31:12;;;;;;;5.87;4.30;;;;;;;27.18;48.69;98931.39;1758884;81;22187;-69
2021/07/31 07:33:39;;;;;;;11.48;5.20;;;;;;;27.26;46.84;98939.84;1758812;81;21512;-69
2021/07/31 07:36:16;;;;;;;19.77;5.80;;;;;;;27.33;47.26;98936.04;1762057;81;21126;-69
2021/07/31 07:38:44;;;;;;;11.40;5.05;;;;;;;27.42;48.28;98936.98;1765670;81;20992;-71
2021/07/31 07:41:11;;;;;;;7.50;5.03;;;;;;;27.54;48.57;98943.30;1767553;80;21003;-72
2021/07/31 07:43:38;;;;;;;16.40;4.90;;;;;;;27.70;46.98;98943.11;1747753;80;21463;-68
2021/07/31 07:46:04;;;;;;;5.17;4.03;;;;;;;27.80;46.37;98941.37;1772283;79;21031;-72
2021/07/31 07:48:32;;;;;;;15.53;3.95;;;;;;;27.88;43.52;98948.38;1774174;79;21120;-71
2021/07/31 07:51:03;;;;;;;6.65;4.55;;;;;;;27.93;43.49;98942.81;1747058;82;21020;-70
2021/07/31 07:53:31;;;;;;;5.75;4.50;;;;;;;28.02;43.22;98951.41;1773809;80;21069;-70
2021/07/31 07:55:57;;;;;;;5.55;4.17;;;;;;;28.13;42.42;98943.42;1747382;80;20967;-69
2021/07/31 07:58:25;;;;;;;8.40;3.72;;;;;;;28.23;42.34;98947.19;1740520;82;21308;-69
2021/07/31 08:00:52;;;;;;;7.72;4.20;;;;;;;28.31;41.65;98942.13;1747876;82;21584;-71
2021/07/31 08:03:20;;;;;;;5.60;4.00;;;;;;;28.42;42.82;98942.55;1747638;82;21335;-70
2021/07/31 08:05:46;;;;;;;8.78;4.40;;;;;;;28.56;43.96;98944.93;1747860;82;21495;-71
2021/07/31 08:08:14;;;;;;;9.55;4.60;;;;;;;28.70;42.72;98943.06;1747290;80;21039;-70
2021/07/31 08:10:41;;;;;;;5.60;3.52;;;;;;;28.88;42.80;98943.92;1773217;80;21008;-70
2021/07/31 08:13:09;;;;;;;5.75;3.90;;;;;;;29.12;40.40;98942.89;1772331;80;21364;-70
2021/07/31 08:15:37;;;;;;;3.98;3.60;;;;;;;29.43;38.91;98944.48;1773084;80;22211;-69
2021/07/31 08:18:03;;;;;;;10.80;3.80;;;;;;;29.77;37.92;98941.59;1772895;79;21014;-69
2021/07/31 08:20:32;;;;;;;13.90;4.22;;;;;;;30.14;37.62;98935.55;1772631;79;21090;-69
2021/07/31 08:22:58;;;;;;;9.58;4.47;;;;;;;30.50;38.29;98936.36;1773460;79;21015;-69
2021/07/31 08:25:26;;;;;;;9.78;4.55;;;;;;;30.82;37.35;98938.52;1747799;82;21195;-70
2021/07/31 08:27:54;;;;;;;8.65;3.95;;;;;;;31.09;38.29;98937.80;1773840;80;20919;-71
2021/07/31 08:30:21;;;;;;;5.40;3.40;;;;;;;31.39;37.03;98939.73;1747672;80;21172;-70
2021/07/31 08:32:49;;;;;;;7.78;3.95;;;;;;;31.61;34.68;98943.84;1773851;80;21494;-70
2021/07/31 08:35:17;;;;;;;18.25;4.15;;;;;;;31.64;33.83;98943.52;1750370;80;21019;-70
2021/07/31 08:37:45;;;;;;;8.58;3.70;;;;;;;31.73;33.57;98936.45;1792755;80;21122;-70
2021/07/31 08:40:12;;;;;;;7.17;3.55;;;;;;;31.93;33.09;98933.87;1784828;80;20991;-71
2021/07/31 08:42:40;;;;;;;7.45;3.65;;;;;;;32.14;33.67;98939.20;1771800;80;20971;-69
2021/07/31 08:45:09;;;;;;;8.35;3.50;;;;;;;32.32;34.21;98929.88;1774147;80;20996;-69
2021/07/31 08:47:37;;;;;;;6.25;3.67;;;;;;;32.57;34.17;98931.48;1773016;79;21034;-70
2021/07/31 08:50:06;;;;;;;4.42;3.30;;;;;;;32.68;33.51;98928.28;1765937;80;21035;-69
2021/07/31 08:52:33;;;;;;;10.40;3.02;;;;;;;32.80;31.56;98930.14;1771974;80;21604;-70
2021/07/31 08:55:00;;;;;;;4.45;3.60;;;;;;;32.77;33.60;98929.69;1772349;80;20868;-69
2021/07/31 08:57:26;;;;;;;4.90;3.20;;;;;;;32.68;31.56;98924.02;1772639;81;20971;-69
2021/07/31 08:59:53;;;;;;;5.40;3.65;;;;;;;32.61;31.43;98925.79;1772661;81;20931;-69
2021/07/31 09:02:21;;;;;;;6.45;3.58;;;;;;;32.54;32.14;98926.13;1772556;81;21181;-69
2021/07/31 09:04:51;;;;;;;5.60;3.30;;;;;;;32.62;33.64;98923.73;1772895;81;20992;-69
2021/07/31 09:07:18;;;;;;;5.50;3.40;;;;;;;32.85;32.44;98916.55;1746363;82;20962;-69
2021/07/31 09:09:46;;;;;;;5.85;3.60;;;;;;;33.17;31.92;98919.16;1746916;82;20907;-69
2021/07/31 09:12:13;;;;;;;9.33;4.50;;;;;;;33.40;32.26;98915.53;1746649;82;20959;-69
2021/07/31 09:14:46;;;;;;;4.53;3.70;;;;;;;33.58;32.89;98918.84;1746803;82;21919;-70
2021/07/31 09:17:25;;;;;;;4.70;3.92;;;;;;;33.72;30.64;98916.66;1746532;82;20855;-69
2021/07/31 09:19:55;;;;;;;5.97;3.33;;;;;;;33.74;32.23;98918.37;1746858;80;21503;-72
2021/07/31 09:22:21;;;;;;;8.33;4.12;;;;;;;33.59;31.04;98923.25;1734089;82;21022;-70
2021/07/31 09:25:10;;;;;;;6.42;3.50;;;;;;;33.44;33.08;98921.19;1747537;82;20855;-69
2021/07/31 09:27:37;;;;;;;9.65;3.67;;;;;;;33.55;31.09;98916.97;1748445;82;21098;-71
2021/07/31 09:30:06;;;;;;;6.90;3.52;;;;;;;33.51;31.26;98914.97;1725174;82;21393;-71
2021/07/31 09:32:42;;;;;;;4.75;3.50;;;;;;;33.58;31.75;98914.56;1748559;82;20871;-71
2021/07/31 09:35:22;;;;;;;6.62;3.95;;;;;;;33.69;30.38;98907.67;1748295;82;20938;-70
2021/07/31 09:37:50;;;;;;;4.55;3.60;;;;;;;33.83;30.03;98914.69;1748595;82;20902;-70
2021/07/31 09:40:29;;;;;;;11.88;3.42;;;;;;;33.79;30.10;98912.00;1748105;82;21135;-70
2021/07/31 09:42:55;;;;;;;5.70;3.55;;;;;;;33.78;29.05;98911.86;1752669;81;20906;-70
2021/07/31 09:45:32;;;;;;;5.40;3.47;;;;;;;33.68;28.23;98914.00;1753978;81;20953;-73
2021/07/31 09:48:04;;;;;;;4.17;3.67;;;;;;;33.55;28.75;98906.38;1750427;81;20909;-71
2021/07/31 09:50:50;;;;;;;4.47;4.00;;;;;;;33.62;29.49;98909.47;1753435;81;20890;-73
2021/07/31 09:53:21;;;;;;;5.10;3.77;;;;;;;33.82;30.51;98898.88;1723279;83;21366;-70
2021/07/31 09:55:50;;;;;;;5.55;3.37;;;;;;;33.91;28.01;98903.84;1724181;83;20949;-70
2021/07/31 09:58:19;;;;;;;5.67;3.72;;;;;;;33.87;29.28;98908.16;1724299;83;21016;-71
2021/07/31 10:00:49;;;;;;;3.87;3.22;;;;;;;33.79;28.18;98898.59;1724201;83;20968;-70
2021/07/31 10:03:15;;;;;;;5.65;3.60;;;;;;;33.78;28.73;98897.63;1723649;83;21455;-70
2021/07/31 10:05:44;;;;;;;8.03;3.60;;;;;;;33.87;28.04;98892.51;1724066;83;21140;-70
2021/07/31 10:08:13;;;;;;;5.22;3.40;;;;;;;34.02;28.16;98889.81;1724354;83;20901;-70
2021/07/31 10:10:40;;;;;;;6.17;3.90;;;;;;;34.10;28.57;98896.66;1724077;83;20921;-73
2021/07/31 10:13:07;;;;;;;4.80;3.42;;;;;;;34.18;29.33;98887.06;1724554;83;20996;-73
2021/07/31 10:15:35;;;;;;;7.25;3.37;;;;;;;34.33;28.72;98888.51;1724378;83;21028;-72
2021/07/31 10:18:10;;;;;;;7.10;3.80;;;;;;;34.36;28.32;98893.22;1724141;83;21048;-72
2021/07/31 10:20:37;;;;;;;4.87;3.45;;;;;;;34.34;26.88;98898.63;1723998;83;20977;-73
2021/07/31 10:23:07;;;;;;;4.42;3.25;;;;;;;34.25;26.31;98883.03;1745109;81;21465;-73
2021/07/31 10:25:32;;;;;;;3.58;3.27;;;;;;;34.25;27.65;98892.37;1754113;81;21074;-74
2021/07/31 10:28:30;;;;;;;3.75;3.35;;;;;;;34.38;25.54;98890.02;1752746;80;21084;-74
2021/07/31 10:31:30;;;;;;;4.03;3.58;;;;;;;34.36;26.53;98885.45;1742618;81;20995;-75
2021/07/31 10:33:57;;;;;;;3.83;3.20;;;;;;;34.22;26.95;98892.56;1750145;81;21071;-73
2021/07/31 10:36:34;;;;;;;8.43;3.70;;;;;;;33.98;27.61;98892.06;1737903;81;21409;-73
2021/07/31 10:39:27;;;;;;;5.15;3.55;;;;;;;34.09;27.95;98892.88;1738463;81;20965;-73
2021/07/31 10:42:03;;;;;;;4.90;3.40;;;;;;;34.28;27.37;98895.66;1749661;81;21724;-72
2021/07/31 10:44:30;;;;;;;4.05;3.45;;;;;;;34.50;27.30;98893.83;1754204;81;21162;-71
2021/07/31 10:47:25;;;;;;;7.17;3.58;;;;;;;34.56;27.30;98894.70;1754510;81;20954;-72
2021/07/31 10:49:53;;;;;;;4.58;2.98;;;;;;;34.60;26.11;98894.50;1754497;81;20942;-73
2021/07/31 10:52:50;;;;;;;4.42;2.98;;;;;;;34.55;26.55;98889.50;1754132;81;37839;-71
2021/07/31 10:55:24;;;;;;;4.58;3.67;;;;;;;34.55;28.51;98883.80;1747892;81;20974;-72
2021/07/31 10:58:03;;;;;;;6.40;3.52;;;;;;;34.60;27.17;98888.16;1753272;81;21794;-72
2021/07/31 11:00:40;;;;;;;8.73;3.47;;;;;;;34.63;28.50;98877.19;1754332;81;21497;-73
2021/07/31 11:03:21;;;;;;;9.95;4.05;;;;;;;34.57;27.46;98877.75;1754220;81;21497;-71
2021/07/31 11:06:00;;;;;;;5.72;3.70;;;;;;;34.45;27.20;98874.58;1754380;81;20967;-71
2021/07/31 11:08:35;;;;;;;3.87;3.52;;;;;;;34.28;27.00;98870.02;1753630;81;20938;-70
2021/07/31 11:11:19;;;;;;;6.58;3.47;;;;;;;34.35;27.08;98861.73;1722417;81;21157;-70
2021/07/31 11:13:51;;;;;;;5.53;3.65;;;;;;;34.52;27.57;98850.59;1753784;81;20966;-70
2021/07/31 11:16:22;;;;;;;18.37;3.72;;;;;;;34.60;26.65;98851.11;1754457;81;20906;-69
2021/07/31 11:18:51;;;;;;;7.33;3.37;;;;;;;34.50;27.14;98848.88;1754620;81;20922;-70
2021/07/31 11:21:25;;;;;;;7.03;3.60;;;;;;;34.52;26.69;98842.83;1754763;81;21012;-70
2021/07/31 11:23:57;;;;;;;4.37;3.10;;;;;;;34.55;27.64;98839.62;1754491;81;21169;-70
2021/07/31 11:26:54;;;;;;;3.83;2.80;;;;;;;34.45;26.63;98844.67;1754689;81;21409;-70
2021/07/31 11:29:28;;;;;;;4.95;3.52;;;;;;;34.25;27.36;98847.43;1754008;80;21041;-72
2021/07/31 11:32:12;;;;;;;4.20;3.10;;;;;;;34.38;28.19;98853.62;1754326;81;21540;-71
2021/07/31 11:34:42;;;;;;;5.50;3.40;;;;;;;34.38;27.65;98847.92;1754069;81;20981;-70
2021/07/31 11:37:10;;;;;;;5.97;3.50;;;;;;;34.53;28.22;98851.52;1753396;81;20855;-73